createdAt,value
2023-03-01T00:01:05.966Z,1.40
2023-03-01T00:03:38.196Z,1.40
2023-03-01T00:06:15.893Z,1.40
2023-03-01T00:08:47.915Z,1.40
2023-03-01T00:11:20.997Z,1.40
2023-03-01T00:14:04.669Z,1.40
2023-03-01T00:16:44.954Z,1.40
2023-03-01T00:19:19.683Z,1.50
2023-03-01T00:21:55.482Z,1.50
2023-03-01T00:24:42.762Z,1.50
2023-03-01T00:27:22.628Z,1.60
2023-03-01T00:29:52.801Z,1.60
2023-03-01T00:32:23.885Z,1.60
2023-03-01T00:34:57.973Z,1.60
2023-03-01T00:37:32.735Z,1.60
2023-03-01T00:40:07.657Z,1.70
2023-03-01T00:42:44.592Z,1.60
2023-03-01T00:45:15.816Z,1.60
2023-03-01T00:47:45.880Z,1.60
2023-03-01T00:50:22.439Z,1.60
2023-03-01T00:53:00.986Z,1.60
2023-03-01T00:55:33.487Z,1.60
2023-03-01T00:58:05.740Z,1.60
2023-03-01T01:00:42.124Z,1.60
2023-03-01T01:03:14.570Z,1.60
2023-03-01T01:05:49.030Z,1.60
2023-03-01T01:08:20.070Z,1.60
2023-03-01T01:10:57.880Z,1.60
2023-03-01T01:13:27.891Z,1.60
2023-03-01T01:16:06.451Z,1.60
2023-03-01T01:18:41.365Z,1.60
2023-03-01T01:21:16.241Z,1.60
2023-03-01T01:23:51.727Z,1.60
2023-03-01T01:26:29.330Z,1.60
2023-03-01T01:29:04.055Z,1.60
2023-03-01T01:31:40.849Z,1.60
2023-03-01T01:34:19.166Z,1.60
2023-03-01T01:36:53.325Z,1.50
2023-03-01T01:39:41.213Z,1.60
2023-03-01T01:42:19.010Z,1.60
2023-03-01T01:44:51.247Z,1.50
2023-03-01T01:47:28.260Z,1.60
2023-03-01T01:50:00.463Z,1.60
2023-03-01T01:52:39.774Z,1.60
2023-03-01T01:55:16.786Z,1.50
2023-03-01T01:57:52.646Z,1.50
2023-03-01T02:00:27.516Z,1.50
2023-03-01T02:03:04.096Z,1.50
2023-03-01T02:05:45.387Z,1.50
2023-03-01T02:08:21.707Z,1.50
2023-03-01T02:11:04.377Z,1.50
2023-03-01T02:13:47.203Z,1.50
2023-03-01T02:16:20.285Z,1.40
2023-03-01T02:19:02.402Z,1.40
2023-03-01T02:21:48.243Z,1.30
2023-03-01T02:24:28.271Z,1.30
2023-03-01T02:27:15.746Z,1.30
2023-03-01T02:29:57.955Z,1.30
2023-03-01T02:32:28.977Z,1.20
2023-03-01T02:35:00.707Z,1.20
2023-03-01T02:37:34.284Z,1.20
2023-03-01T02:40:23.496Z,1.20
2023-03-01T02:43:02.291Z,1.20
2023-03-01T02:45:41.115Z,1.20
2023-03-01T02:48:12.513Z,1.20
2023-03-01T02:51:07.732Z,1.20
2023-03-01T02:53:52.416Z,1.20
2023-03-01T02:56:35.284Z,1.20
2023-03-01T02:59:08.539Z,1.10
2023-03-01T03:01:52.002Z,1.20
2023-03-01T03:04:28.320Z,1.20
2023-03-01T03:07:05.491Z,1.20
2023-03-01T03:09:40.755Z,1.20
2023-03-01T03:12:14.765Z,1.20
2023-03-01T03:14:46.950Z,1.20
2023-03-01T03:17:22.683Z,1.10
2023-03-01T03:20:04.438Z,1.20
2023-03-01T03:22:45.823Z,1.10
2023-03-01T03:25:24.699Z,1.10
2023-03-01T03:28:08.129Z,1.20
2023-03-01T03:30:45.469Z,1.10
2023-03-01T03:33:25.500Z,1.10
2023-03-01T03:36:01.285Z,1.10
2023-03-01T03:38:32.067Z,1.10
2023-03-01T03:41:09.604Z,1.10
2023-03-01T03:43:43.883Z,1.10
2023-03-01T03:46:15.809Z,1.20
2023-03-01T03:51:42.413Z,1.10
2023-03-01T03:54:16.748Z,1.20
2023-03-01T03:56:47.827Z,1.10
2023-03-01T03:59:25.300Z,1.10
2023-03-01T04:02:00.781Z,1.10
2023-03-01T04:04:41.968Z,1.10
2023-03-01T04:07:26.928Z,1.10
2023-03-01T04:09:59.977Z,1.10
2023-03-01T04:12:35.668Z,1.10
2023-03-01T04:15:21.597Z,1.10
2023-03-01T04:18:00.369Z,1.10
2023-03-01T04:20:37.669Z,1.10
2023-03-01T04:23:20.558Z,1.10
2023-03-01T04:26:00.189Z,1.10
2023-03-01T04:28:35.432Z,1.10
2023-03-01T04:31:18.782Z,1.10
2023-03-01T04:33:55.030Z,1.10
2023-03-01T04:36:34.618Z,1.10
2023-03-01T04:39:23.420Z,1.10
2023-03-01T04:42:06.034Z,1.10
2023-03-01T04:44:36.916Z,1.10
2023-03-01T04:47:13.595Z,1.10
2023-03-01T04:49:49.078Z,1.10
2023-03-01T04:52:27.556Z,1.00
2023-03-01T04:55:00.835Z,1.10
2023-03-01T04:57:34.659Z,1.10
2023-03-01T05:00:21.218Z,1.00
2023-03-01T05:03:02.099Z,1.00
2023-03-01T05:05:37.464Z,1.00
2023-03-01T05:08:18.649Z,1.00
2023-03-01T05:10:52.936Z,1.00
2023-03-01T05:13:30.534Z,1.00
2023-03-01T05:16:01.543Z,1.00
2023-03-01T05:18:33.135Z,1.00
2023-03-01T05:21:06.870Z,1.00
2023-03-01T05:23:39.067Z,0.90
2023-03-01T05:26:22.445Z,1.00
2023-03-01T05:29:00.635Z,0.90
2023-03-01T05:31:32.165Z,0.90
2023-03-01T05:34:03.069Z,0.90
2023-03-01T05:36:33.013Z,0.90
2023-03-01T05:39:05.263Z,0.90
2023-03-01T05:41:34.878Z,0.90
2023-03-01T05:44:06.117Z,0.90
2023-03-01T05:46:35.370Z,0.90
2023-03-01T05:49:05.594Z,0.90
2023-03-01T05:51:34.957Z,0.90
2023-03-01T05:54:07.161Z,0.90
2023-03-01T05:56:37.224Z,0.90
2023-03-01T05:59:07.739Z,0.90
2023-03-01T06:01:39.253Z,0.90
2023-03-01T06:04:09.181Z,0.90
2023-03-01T06:06:40.830Z,0.90
2023-03-01T06:09:12.391Z,1.00
2023-03-01T06:11:41.837Z,1.00
2023-03-01T06:14:11.776Z,1.00
2023-03-01T06:16:41.138Z,1.00
2023-03-01T06:19:11.145Z,1.00
2023-03-01T06:21:40.435Z,1.00
2023-03-01T06:24:12.453Z,1.10
2023-03-01T06:26:41.839Z,1.00
2023-03-01T06:29:11.646Z,1.00
2023-03-01T06:31:41.197Z,1.10
2023-03-01T06:34:14.694Z,1.10
2023-03-01T06:36:44.409Z,1.10
2023-03-01T06:39:15.742Z,1.10
2023-03-01T06:41:45.044Z,1.10
2023-03-01T06:44:14.972Z,1.10
2023-03-01T06:46:44.951Z,1.10
2023-03-01T06:49:14.792Z,1.20
2023-03-01T06:51:44.065Z,1.20
2023-03-01T06:54:15.752Z,1.20
2023-03-01T06:56:44.979Z,1.30
2023-03-01T06:59:14.607Z,1.30
2023-03-01T07:01:44.780Z,1.30
2023-03-01T07:04:15.648Z,1.30
2023-03-01T07:06:44.970Z,1.20
2023-03-01T07:09:20.978Z,1.10
2023-03-01T07:11:50.376Z,1.10
2023-03-01T07:14:21.018Z,1.10
2023-03-01T07:16:51.791Z,1.20
2023-03-01T07:19:23.738Z,1.20
2023-03-01T07:21:53.687Z,1.20
2023-03-01T07:24:25.184Z,1.30
2023-03-01T07:26:56.759Z,1.30
2023-03-01T07:29:26.543Z,1.30
2023-03-01T07:31:56.023Z,1.30
2023-03-01T07:34:25.874Z,1.40
2023-03-01T07:36:55.428Z,1.40
2023-03-01T07:39:27.546Z,1.50
2023-03-01T07:41:57.191Z,1.50
2023-03-01T07:44:27.041Z,1.50
2023-03-01T07:46:57.630Z,1.50
2023-03-01T07:49:28.242Z,1.60
2023-03-01T07:51:57.735Z,1.60
2023-03-01T07:54:28.984Z,1.70
2023-03-01T07:56:59.615Z,1.70
2023-03-01T07:59:30.429Z,1.80
2023-03-01T08:01:59.918Z,1.80
2023-03-01T08:04:29.719Z,1.80
2023-03-01T08:06:59.528Z,1.90
2023-03-01T08:09:30.569Z,1.90
2023-03-01T08:12:01.366Z,1.90
2023-03-01T08:14:31.348Z,2.00
2023-03-01T08:17:01.251Z,2.10
2023-03-01T08:19:31.561Z,2.20
2023-03-01T08:22:01.251Z,2.30
2023-03-01T08:24:32.513Z,2.30
2023-03-01T08:27:03.730Z,2.40
2023-03-01T08:29:34.143Z,2.50
2023-03-01T08:32:03.616Z,2.50
2023-03-01T08:34:33.808Z,2.50
2023-03-01T08:37:03.385Z,2.60
2023-03-01T08:39:34.812Z,2.70
2023-03-01T08:42:03.766Z,2.80
2023-03-01T08:44:33.482Z,2.80
2023-03-01T08:47:03.564Z,2.80
2023-03-01T08:49:33.901Z,2.70
2023-03-01T08:52:04.695Z,2.80
2023-03-01T08:54:35.807Z,2.80
2023-03-01T08:57:05.574Z,2.80
2023-03-01T08:59:38.530Z,2.90
2023-03-01T09:02:08.032Z,3.00
2023-03-01T09:04:37.686Z,3.00
2023-03-01T09:07:07.216Z,3.10
2023-03-01T09:09:39.186Z,3.10
2023-03-01T09:12:08.745Z,3.30
2023-03-01T09:14:40.045Z,3.40
2023-03-01T09:17:09.757Z,3.40
2023-03-01T09:19:39.908Z,3.50
2023-03-01T09:22:09.169Z,3.70
2023-03-01T09:24:40.911Z,3.80
2023-03-01T09:27:10.272Z,3.90
2023-03-01T09:29:41.190Z,4.00
2023-03-01T09:32:11.201Z,4.10
2023-03-01T09:34:54.691Z,4.20
2023-03-01T09:37:24.255Z,4.20
2023-03-01T09:39:55.979Z,4.20
2023-03-01T09:42:25.404Z,4.20
2023-03-01T09:45:00.567Z,4.20
2023-03-01T09:47:33.132Z,4.20
2023-03-01T09:50:08.555Z,4.10
2023-03-01T09:52:44.046Z,4.10
2023-03-01T09:55:17.769Z,4.30
2023-03-01T09:57:53.762Z,4.40
2023-03-01T10:00:35.991Z,4.50
2023-03-01T10:03:18.136Z,4.40
2023-03-01T10:05:58.804Z,4.60
2023-03-01T10:08:34.971Z,4.70
2023-03-01T10:11:07.908Z,4.70
2023-03-01T10:13:50.035Z,4.80
2023-03-01T10:16:25.504Z,4.90
2023-03-01T10:18:58.395Z,4.80
2023-03-01T10:21:31.268Z,4.90
2023-03-01T10:24:10.501Z,5.00
2023-03-01T10:26:49.990Z,5.10
2023-03-01T10:29:20.075Z,5.20
2023-03-01T10:31:52.769Z,5.20
2023-03-01T10:34:24.549Z,5.30
2023-03-01T10:36:58.139Z,5.40
2023-03-01T10:39:29.092Z,5.40
2023-03-01T10:42:03.289Z,5.40
2023-03-01T10:44:41.449Z,5.50
2023-03-01T10:47:18.022Z,5.60
2023-03-01T10:49:56.425Z,5.70
2023-03-01T10:52:28.904Z,5.80
2023-03-01T10:55:00.393Z,6.00
2023-03-01T10:57:46.334Z,6.10
2023-03-01T11:00:26.041Z,6.10
2023-03-01T11:03:15.576Z,6.20
2023-03-01T11:06:02.881Z,6.60
2023-03-01T11:08:35.186Z,7.20
2023-03-01T11:11:21.213Z,8.10
2023-03-01T11:13:58.687Z,8.80
2023-03-01T11:16:31.259Z,9.50
2023-03-01T11:19:03.288Z,10.40
2023-03-01T11:21:36.232Z,11.40
2023-03-01T11:24:09.571Z,11.30
2023-03-01T11:26:42.359Z,11.20
2023-03-01T11:29:23.852Z,11.10
2023-03-01T11:31:57.853Z,11.30
2023-03-01T11:34:41.231Z,11.50
2023-03-01T11:37:19.628Z,11.70
2023-03-01T11:39:59.887Z,11.80
2023-03-01T11:42:37.878Z,11.90
2023-03-01T11:45:13.650Z,11.20
2023-03-01T11:48:06.550Z,10.80
2023-03-01T11:50:42.760Z,11.20
2023-03-01T11:53:33.112Z,11.40
2023-03-01T11:56:12.472Z,12.10
2023-03-01T11:58:57.752Z,12.70
2023-03-01T12:01:52.150Z,12.60
2023-03-01T12:04:54.341Z,12.50
2023-03-01T12:07:32.336Z,12.70
2023-03-01T12:10:20.506Z,11.50
2023-03-01T12:13:11.835Z,11.00
2023-03-01T12:15:58.931Z,11.10
2023-03-01T12:19:03.898Z,11.10
2023-03-01T12:21:44.907Z,11.30
2023-03-01T12:24:51.864Z,10.30
2023-03-01T12:27:41.733Z,10.60
2023-03-01T12:30:24.417Z,11.10
2023-03-01T12:33:06.026Z,11.10
2023-03-01T12:36:08.378Z,11.10
2023-03-01T12:38:44.829Z,10.80
2023-03-01T12:41:45.113Z,10.70
2023-03-01T12:44:45.040Z,11.30
2023-03-01T12:47:28.170Z,11.80
2023-03-01T12:50:00.714Z,11.70
2023-03-01T12:52:40.156Z,11.80
2023-03-01T12:55:25.102Z,11.60
2023-03-01T12:58:13.071Z,11.70
2023-03-01T13:00:52.357Z,12.00
2023-03-01T13:07:58.185Z,11.90
2023-03-01T13:10:36.203Z,12.00
2023-03-01T13:13:16.599Z,11.70
2023-03-01T13:15:49.013Z,11.50
2023-03-01T13:18:34.321Z,11.50
2023-03-01T13:21:46.402Z,11.50
2023-03-01T13:24:30.310Z,10.90
2023-03-01T13:27:30.562Z,11.30
2023-03-01T13:30:06.811Z,11.90
2023-03-01T13:32:46.926Z,12.40
2023-03-01T13:35:46.049Z,12.60
2023-03-01T13:38:47.182Z,13.20
2023-03-01T13:41:17.916Z,13.90
2023-03-01T13:43:50.518Z,13.80
2023-03-01T13:46:23.483Z,13.80
2023-03-01T13:48:55.940Z,13.60
2023-03-01T13:51:28.412Z,13.50
2023-03-01T13:54:00.548Z,12.90
2023-03-01T13:56:35.965Z,11.90
2023-03-01T13:59:15.345Z,11.90
2023-03-01T14:01:45.510Z,11.70
2023-03-01T14:04:24.298Z,11.30
2023-03-01T14:06:53.810Z,11.70
2023-03-01T14:09:26.313Z,12.10
2023-03-01T14:12:25.725Z,11.80
2023-03-01T14:15:02.099Z,11.20
2023-03-01T14:17:49.104Z,10.40
2023-03-01T14:20:22.990Z,10.30
2023-03-01T14:22:55.053Z,10.30
2023-03-01T14:25:28.375Z,9.80
2023-03-01T14:28:03.323Z,9.70
2023-03-01T14:30:40.909Z,9.80
2023-03-01T14:33:23.387Z,9.70
2023-03-01T14:35:59.005Z,9.60
2023-03-01T14:38:35.922Z,9.70
2023-03-01T14:41:09.537Z,10.00
2023-03-01T14:43:40.208Z,9.70
2023-03-01T14:46:21.735Z,9.30
2023-03-01T14:48:53.484Z,9.10
2023-03-01T14:51:23.638Z,9.10
2023-03-01T14:53:54.070Z,9.20
2023-03-01T14:56:23.725Z,9.60
2023-03-01T14:58:55.717Z,9.70
2023-03-01T15:01:27.122Z,9.40
2023-03-01T15:03:57.057Z,9.30
2023-03-01T15:06:26.822Z,9.40
2023-03-01T15:08:58.181Z,9.30
2023-03-01T15:11:31.702Z,8.80
2023-03-01T15:14:01.889Z,8.40
2023-03-01T15:16:34.955Z,7.90
2023-03-01T15:19:06.762Z,7.40
2023-03-01T15:21:38.024Z,7.20
2023-03-01T15:24:20.950Z,7.00
2023-03-01T15:26:58.877Z,6.70
2023-03-01T15:29:32.637Z,6.50
2023-03-01T15:32:05.316Z,6.30
2023-03-01T15:34:35.698Z,6.20
2023-03-01T15:37:09.916Z,6.00
2023-03-01T15:39:44.636Z,5.90
2023-03-01T15:42:35.954Z,5.70
2023-03-01T15:45:12.784Z,5.60
2023-03-01T15:47:49.497Z,5.50
2023-03-01T15:50:22.038Z,5.40
2023-03-01T15:52:53.073Z,5.40
2023-03-01T15:55:24.272Z,5.30
2023-03-01T15:58:01.763Z,5.30
2023-03-01T16:00:31.812Z,5.30
2023-03-01T16:03:02.988Z,5.30
2023-03-01T16:05:35.699Z,5.20
2023-03-01T16:08:06.944Z,5.10
2023-03-01T16:10:37.782Z,5.10
2023-03-01T16:13:07.402Z,5.10
2023-03-01T16:15:37.089Z,5.10
2023-03-01T16:18:11.654Z,5.00
2023-03-01T16:20:41.931Z,5.00
2023-03-01T16:23:13.468Z,5.00
2023-03-01T16:25:43.000Z,4.90
2023-03-01T16:28:12.915Z,4.80
2023-03-01T16:30:43.412Z,4.80
2023-03-01T16:33:33.409Z,4.70
2023-03-01T16:36:03.915Z,4.60
2023-03-01T16:38:36.021Z,4.50
2023-03-01T16:41:06.171Z,4.40
2023-03-01T16:43:35.959Z,4.30
2023-03-01T16:46:13.463Z,4.30
2023-03-01T16:48:44.969Z,4.30
2023-03-01T16:51:14.177Z,4.30
2023-03-01T16:53:45.647Z,4.20
2023-03-01T16:56:17.144Z,4.10
2023-03-01T16:58:47.222Z,4.00
2023-03-01T17:01:18.368Z,3.90
2023-03-01T17:03:52.525Z,3.80
2023-03-01T17:06:26.015Z,3.80
2023-03-01T17:08:55.666Z,3.90
2023-03-01T17:11:25.150Z,3.80
2023-03-01T17:13:54.903Z,3.80
2023-03-01T17:16:25.095Z,3.70
2023-03-01T17:18:56.244Z,3.70
2023-03-01T17:21:25.581Z,3.70
2023-03-01T17:23:59.258Z,3.70
2023-03-01T17:26:29.678Z,3.70
2023-03-01T17:28:59.708Z,3.80
2023-03-01T17:31:29.363Z,3.90
2023-03-01T17:34:01.756Z,3.90
2023-03-01T17:36:31.149Z,4.10
2023-03-01T17:39:00.788Z,4.00
2023-03-01T17:41:30.317Z,4.10
2023-03-01T17:44:00.214Z,4.10
2023-03-01T17:46:29.608Z,4.20
2023-03-01T17:49:00.735Z,4.10
2023-03-01T17:51:30.762Z,4.10
2023-03-01T17:54:00.619Z,4.00
2023-03-01T17:56:30.079Z,4.00
2023-03-01T17:59:00.207Z,4.00
2023-03-01T18:01:29.686Z,4.00
2023-03-01T18:04:02.289Z,4.00
2023-03-01T18:06:32.461Z,4.10
2023-03-01T18:09:02.635Z,4.10
2023-03-01T18:11:32.339Z,4.20
2023-03-01T18:14:02.557Z,4.30
2023-03-01T18:16:34.509Z,4.40
2023-03-01T18:19:05.777Z,4.40
2023-03-01T18:21:35.182Z,4.30
2023-03-01T18:24:05.179Z,4.20
2023-03-01T18:26:34.679Z,4.10
2023-03-01T18:29:05.187Z,4.00
2023-03-01T18:31:34.473Z,4.00
2023-03-01T18:34:05.619Z,4.00
2023-03-01T18:36:37.577Z,3.90
2023-03-01T18:39:09.466Z,3.90
2023-03-01T18:41:40.184Z,3.80
2023-03-01T18:44:09.911Z,3.80
2023-03-01T18:46:40.303Z,3.80
2023-03-01T18:49:13.914Z,3.70
2023-03-01T18:51:44.497Z,3.70
2023-03-01T18:54:14.897Z,3.80
2023-03-01T18:56:44.728Z,3.70
2023-03-01T18:59:14.437Z,3.70
2023-03-01T19:01:44.012Z,3.70
2023-03-01T19:04:15.710Z,3.60
2023-03-01T19:06:44.983Z,3.60
2023-03-01T19:09:15.926Z,3.70
2023-03-01T19:11:45.675Z,3.60
2023-03-01T19:14:15.347Z,3.60
2023-03-01T19:16:44.888Z,3.60
2023-03-01T19:19:15.984Z,3.50
2023-03-01T19:21:48.738Z,3.60
2023-03-01T19:24:23.468Z,3.50
2023-03-01T19:26:52.741Z,3.50
2023-03-01T19:29:22.439Z,3.50
2023-03-01T19:31:51.799Z,3.50
2023-03-01T19:34:25.696Z,3.40
2023-03-01T19:36:57.802Z,3.40
2023-03-01T19:39:27.763Z,3.40
2023-03-01T19:41:57.991Z,3.40
2023-03-01T19:44:28.682Z,3.30
2023-03-01T19:46:59.615Z,3.30
2023-03-01T19:49:32.486Z,3.20
2023-03-01T19:52:01.992Z,3.20
2023-03-01T19:54:31.764Z,3.20
2023-03-01T19:57:01.556Z,3.20
2023-03-01T19:59:31.505Z,3.30
2023-03-01T20:02:01.699Z,3.30
2023-03-01T20:04:32.850Z,3.20
2023-03-01T20:07:02.103Z,3.20
2023-03-01T20:09:32.082Z,3.30
2023-03-01T20:12:01.851Z,3.20
2023-03-01T20:14:31.518Z,3.30
2023-03-01T20:17:00.797Z,3.20
2023-03-01T20:19:32.581Z,3.20
2023-03-01T20:22:03.278Z,3.30
2023-03-01T20:24:33.657Z,3.30
2023-03-01T20:27:02.983Z,3.20
2023-03-01T20:29:32.874Z,3.20
2023-03-01T20:32:02.497Z,3.10
2023-03-01T20:34:33.984Z,3.10
2023-03-01T20:37:03.800Z,3.10
2023-03-01T20:39:34.707Z,3.20
2023-03-01T20:42:03.985Z,3.10
2023-03-01T20:44:33.665Z,3.10
2023-03-01T20:47:03.139Z,3.10
2023-03-01T20:49:34.426Z,3.00
2023-03-01T20:52:03.824Z,3.10
2023-03-01T20:54:34.005Z,3.00
2023-03-01T20:57:03.368Z,3.00
2023-03-01T20:59:35.454Z,2.90
2023-03-01T21:02:04.674Z,2.90
2023-03-01T21:04:36.209Z,2.80
2023-03-01T21:07:05.508Z,2.80
2023-03-01T21:09:35.381Z,2.70
2023-03-01T21:12:04.718Z,2.60
2023-03-01T21:14:42.599Z,2.60
2023-03-01T21:17:12.910Z,2.50
2023-03-01T21:19:46.115Z,2.50
2023-03-01T21:22:17.132Z,2.40
2023-03-01T21:24:47.552Z,2.40
2023-03-01T21:27:19.322Z,2.30
2023-03-01T21:29:49.691Z,2.30
2023-03-01T21:32:19.328Z,2.20
2023-03-01T21:34:51.004Z,2.10
2023-03-01T21:37:22.648Z,2.10
2023-03-01T21:39:52.292Z,2.00
2023-03-01T21:42:21.716Z,1.80
2023-03-01T21:44:52.000Z,1.70
2023-03-01T21:47:21.263Z,1.50
2023-03-01T21:49:53.929Z,1.40
2023-03-01T21:52:23.182Z,1.40
2023-03-01T21:54:55.623Z,1.30
2023-03-01T21:57:24.896Z,1.30
2023-03-01T21:59:55.258Z,1.30
2023-03-01T22:02:24.669Z,1.30
2023-03-01T22:04:57.793Z,1.20
2023-03-01T22:07:27.389Z,1.30
2023-03-01T22:09:57.381Z,1.20
2023-03-01T22:12:27.188Z,1.30
2023-03-01T22:14:56.988Z,1.20
2023-03-01T22:17:26.221Z,1.20
2023-03-01T22:19:57.370Z,1.10
2023-03-01T22:22:26.694Z,1.00
2023-03-01T22:24:56.293Z,0.90
2023-03-01T22:27:26.097Z,0.90
2023-03-01T22:29:55.746Z,0.80
2023-03-01T22:32:25.894Z,0.80
2023-03-01T22:34:57.426Z,0.80
2023-03-01T22:37:27.062Z,0.90
2023-03-01T22:39:57.564Z,0.80
2023-03-01T22:42:26.988Z,0.70
2023-03-01T22:44:56.821Z,0.60
2023-03-01T22:47:26.104Z,0.70
2023-03-01T22:49:58.768Z,0.60
2023-03-01T22:52:28.497Z,0.70
2023-03-01T22:54:58.278Z,0.70
2023-03-01T22:57:27.711Z,0.80
2023-03-01T22:59:57.882Z,0.90
2023-03-01T23:02:27.646Z,0.90
2023-03-01T23:04:59.146Z,0.90
2023-03-01T23:07:28.062Z,0.90
2023-03-01T23:10:02.548Z,0.90
2023-03-01T23:12:31.887Z,0.90
2023-03-01T23:15:01.541Z,0.90
2023-03-01T23:17:30.909Z,0.90
2023-03-01T23:20:02.110Z,0.90
2023-03-01T23:22:32.517Z,0.80
2023-03-01T23:25:02.157Z,0.80
2023-03-01T23:27:32.304Z,0.80
2023-03-01T23:30:02.146Z,0.70
2023-03-01T23:32:31.662Z,0.70
2023-03-01T23:35:02.824Z,0.70
2023-03-01T23:37:32.603Z,0.70
2023-03-01T23:40:06.192Z,0.80
2023-03-01T23:42:35.665Z,0.80
2023-03-01T23:45:07.974Z,0.80
2023-03-01T23:47:39.658Z,0.80
2023-03-01T23:50:12.678Z,0.90
2023-03-01T23:52:43.128Z,0.90
2023-03-01T23:55:15.567Z,0.90
2023-03-01T23:57:44.882Z,0.90
